sensor_id;sensor_type;location;lat;lon;timestamp;pressure;altitude;pressure_sealevel;temperature;humidity
33286;BME280;19656;50.096;20.014;2022-09-09T00:08:26;98613.20;;;20.77;65.63
33286;BME280;19656;50.096;20.014;2022-09-09T00:13:38;98619.17;;;20.75;65.52
33286;BME280;19656;50.096;20.014;2022-09-09T00:19:14;98612.11;;;20.69;65.58
33286;BME280;19656;50.096;20.014;2022-09-09T00:24:43;98617.11;;;20.53;65.56
33286;BME280;19656;50.096;20.014;2022-09-09T00:30:12;98609.65;;;20.42;65.84
33286;BME280;19656;50.096;20.014;2022-09-09T00:35:22;98612.25;;;20.41;65.84
33286;BME280;19656;50.096;20.014;2022-09-09T00:40:30;98615.97;;;20.47;66.16
33286;BME280;19656;50.096;20.014;2022-09-09T00:51:17;98621.81;;;20.54;66.05
33286;BME280;19656;50.096;20.014;2022-09-09T01:02:16;98631.20;;;20.47;65.88
33286;BME280;19656;50.096;20.014;2022-09-09T01:07:25;98630.91;;;20.44;65.86
33286;BME280;19656;50.096;20.014;2022-09-09T01:12:42;98632.45;;;20.41;65.95
33286;BME280;19656;50.096;20.014;2022-09-09T01:17:55;98644.28;;;20.37;65.98
33286;BME280;19656;50.096;20.014;2022-09-09T01:28:53;98654.06;;;20.26;65.94
33286;BME280;19656;50.096;20.014;2022-09-09T01:34:10;98653.66;;;20.30;66.18
33286;BME280;19656;50.096;20.014;2022-09-09T01:39:14;98662.02;;;20.29;65.96
33286;BME280;19656;50.096;20.014;2022-09-09T01:44:19;98671.09;;;20.25;66.05
33286;BME280;19656;50.096;20.014;2022-09-09T01:49:23;98676.77;;;20.30;65.99
33286;BME280;19656;50.096;20.014;2022-09-09T01:54:28;98678.33;;;20.30;65.94
33286;BME280;19656;50.096;20.014;2022-09-09T02:00:08;98685.08;;;20.29;65.92
33286;BME280;19656;50.096;20.014;2022-09-09T02:10:56;98696.25;;;20.28;65.96
33286;BME280;19656;50.096;20.014;2022-09-09T02:16:23;98702.16;;;20.26;65.88
33286;BME280;19656;50.096;20.014;2022-09-09T02:21:31;98710.11;;;20.26;66.04
33286;BME280;19656;50.096;20.014;2022-09-09T02:26:38;98708.21;;;20.25;66.09
33286;BME280;19656;50.096;20.014;2022-09-09T02:31:45;98712.22;;;20.20;65.91
33286;BME280;19656;50.096;20.014;2022-09-09T02:36:53;98717.61;;;20.06;65.85
33286;BME280;19656;50.096;20.014;2022-09-09T02:41:57;98727.07;;;20.00;65.90
33286;BME280;19656;50.096;20.014;2022-09-09T02:52:54;98735.17;;;19.99;66.11
33286;BME280;19656;50.096;20.014;2022-09-09T02:58:04;98743.70;;;19.95;66.06
33286;BME280;19656;50.096;20.014;2022-09-09T03:03:10;98742.92;;;19.89;65.99
33286;BME280;19656;50.096;20.014;2022-09-09T03:08:14;98748.05;;;19.79;65.80
33286;BME280;19656;50.096;20.014;2022-09-09T03:13:17;98754.98;;;19.70;65.83
33286;BME280;19656;50.096;20.014;2022-09-09T03:18:22;98753.98;;;19.62;66.07
33286;BME280;19656;50.096;20.014;2022-09-09T03:23:27;98754.84;;;19.57;66.19
33286;BME280;19656;50.096;20.014;2022-09-09T03:28:32;98755.28;;;19.51;66.16
33286;BME280;19656;50.096;20.014;2022-09-09T03:33:37;98749.88;;;19.49;66.23
33286;BME280;19656;50.096;20.014;2022-09-09T03:38:41;98750.89;;;19.47;66.30
33286;BME280;19656;50.096;20.014;2022-09-09T03:43:44;98754.84;;;19.41;66.39
33286;BME280;19656;50.096;20.014;2022-09-09T03:48:47;98757.17;;;19.38;66.50
33286;BME280;19656;50.096;20.014;2022-09-09T03:53:50;98763.59;;;19.33;66.49
33286;BME280;19656;50.096;20.014;2022-09-09T03:58:53;98771.29;;;19.34;66.60
33286;BME280;19656;50.096;20.014;2022-09-09T04:03:57;98772.77;;;19.30;66.59
33286;BME280;19656;50.096;20.014;2022-09-09T04:09:01;98771.77;;;19.27;66.79
33286;BME280;19656;50.096;20.014;2022-09-09T04:14:06;98780.70;;;19.23;66.86
33286;BME280;19656;50.096;20.014;2022-09-09T04:19:12;98773.75;;;19.13;66.98
33286;BME280;19656;50.096;20.014;2022-09-09T04:24:17;98782.86;;;19.12;67.12
33286;BME280;19656;50.096;20.014;2022-09-09T04:29:20;98782.95;;;19.13;67.17
33286;BME280;19656;50.096;20.014;2022-09-09T04:34:23;98775.67;;;19.15;67.33
33286;BME280;19656;50.096;20.014;2022-09-09T04:39:30;98777.98;;;19.16;67.36
33286;BME280;19656;50.096;20.014;2022-09-09T04:44:34;98775.42;;;19.16;67.26
33286;BME280;19656;50.096;20.014;2022-09-09T04:49:37;98771.75;;;19.17;67.29
33286;BME280;19656;50.096;20.014;2022-09-09T04:54:41;98773.19;;;19.19;67.47
33286;BME280;19656;50.096;20.014;2022-09-09T04:59:44;98777.58;;;19.23;67.45
33286;BME280;19656;50.096;20.014;2022-09-09T05:04:48;98779.02;;;19.25;67.41
33286;BME280;19656;50.096;20.014;2022-09-09T05:09:52;98779.11;;;19.29;67.39
33286;BME280;19656;50.096;20.014;2022-09-09T05:14:55;98784.04;;;19.34;67.30
33286;BME280;19656;50.096;20.014;2022-09-09T05:19:58;98788.56;;;19.39;67.46
33286;BME280;19656;50.096;20.014;2022-09-09T05:25:01;98794.71;;;19.46;67.58
33286;BME280;19656;50.096;20.014;2022-09-09T05:30:06;98796.30;;;19.51;67.45
33286;BME280;19656;50.096;20.014;2022-09-09T05:35:09;98802.14;;;19.47;67.30
33286;BME280;19656;50.096;20.014;2022-09-09T05:40:14;98802.84;;;19.45;67.29
33286;BME280;19656;50.096;20.014;2022-09-09T05:45:17;98810.64;;;19.48;67.33
33286;BME280;19656;50.096;20.014;2022-09-09T05:50:20;98808.52;;;19.55;67.51
33286;BME280;19656;50.096;20.014;2022-09-09T05:55:24;98808.38;;;19.59;67.41
33286;BME280;19656;50.096;20.014;2022-09-09T06:00:28;98813.42;;;19.58;67.32
33286;BME280;19656;50.096;20.014;2022-09-09T06:05:34;98810.43;;;19.59;67.37
33286;BME280;19656;50.096;20.014;2022-09-09T06:10:37;98816.10;;;19.65;67.29
33286;BME280;19656;50.096;20.014;2022-09-09T06:15:49;98825.77;;;19.69;67.23
33286;BME280;19656;50.096;20.014;2022-09-09T06:20:58;98832.33;;;19.69;66.99
33286;BME280;19656;50.096;20.014;2022-09-09T06:26:07;98832.34;;;19.70;67.10
33286;BME280;19656;50.096;20.014;2022-09-09T06:31:12;98837.16;;;19.88;67.22
33286;BME280;19656;50.096;20.014;2022-09-09T06:41:22;98829.68;;;20.10;66.90
33286;BME280;19656;50.096;20.014;2022-09-09T06:46:27;98831.34;;;20.18;66.79
33286;BME280;19656;50.096;20.014;2022-09-09T06:51:34;98829.45;;;20.19;66.32
33286;BME280;19656;50.096;20.014;2022-09-09T06:56:39;98826.55;;;20.20;66.22
33286;BME280;19656;50.096;20.014;2022-09-09T07:01:55;98825.96;;;20.29;66.24
33286;BME280;19656;50.096;20.014;2022-09-09T07:07:00;98827.63;;;20.34;65.97
33286;BME280;19656;50.096;20.014;2022-09-09T07:12:04;98825.06;;;20.32;65.75
33286;BME280;19656;50.096;20.014;2022-09-09T07:17:09;98828.20;;;20.36;65.64
33286;BME280;19656;50.096;20.014;2022-09-09T07:22:13;98828.02;;;20.41;65.64
33286;BME280;19656;50.096;20.014;2022-09-09T07:27:17;98830.41;;;20.50;65.56
33286;BME280;19656;50.096;20.014;2022-09-09T07:32:23;98825.93;;;20.60;65.48
33286;BME280;19656;50.096;20.014;2022-09-09T07:37:26;98822.56;;;20.62;65.03
33286;BME280;19656;50.096;20.014;2022-09-09T07:42:29;98826.33;;;20.57;64.74
33286;BME280;19656;50.096;20.014;2022-09-09T07:47:33;98829.02;;;20.52;64.63
33286;BME280;19656;50.096;20.014;2022-09-09T07:52:37;98826.19;;;20.56;64.73
33286;BME280;19656;50.096;20.014;2022-09-09T07:57:40;98835.01;;;20.67;64.80
33286;BME280;19656;50.096;20.014;2022-09-09T08:02:44;98838.22;;;20.77;64.45
33286;BME280;19656;50.096;20.014;2022-09-09T08:07:47;98829.32;;;20.86;64.26
33286;BME280;19656;50.096;20.014;2022-09-09T08:12:50;98829.27;;;20.96;64.17
33286;BME280;19656;50.096;20.014;2022-09-09T08:18:15;98833.50;;;21.06;63.99
33286;BME280;19656;50.096;20.014;2022-09-09T08:23:18;98832.98;;;21.22;63.90
33286;BME280;19656;50.096;20.014;2022-09-09T08:28:21;98840.55;;;21.39;63.70
33286;BME280;19656;50.096;20.014;2022-09-09T08:33:24;98846.08;;;21.52;63.59
33286;BME280;19656;50.096;20.014;2022-09-09T08:38:28;98841.58;;;21.65;63.10
33286;BME280;19656;50.096;20.014;2022-09-09T08:43:32;98844.14;;;21.70;62.46
33286;BME280;19656;50.096;20.014;2022-09-09T08:48:46;98840.10;;;21.75;62.17
33286;BME280;19656;50.096;20.014;2022-09-09T08:53:51;98848.59;;;21.85;61.97
33286;BME280;19656;50.096;20.014;2022-09-09T08:59:02;98851.02;;;21.94;61.48
33286;BME280;19656;50.096;20.014;2022-09-09T09:09:57;98853.41;;;22.14;60.69
33286;BME280;19656;50.096;20.014;2022-09-09T09:15:14;98858.83;;;22.24;60.25
33286;BME280;19656;50.096;20.014;2022-09-09T09:20:42;98854.77;;;22.34;60.09
33286;BME280;19656;50.096;20.014;2022-09-09T09:25:47;98858.45;;;22.45;59.67
33286;BME280;19656;50.096;20.014;2022-09-09T09:30:57;98854.98;;;22.55;59.38
33286;BME280;19656;50.096;20.014;2022-09-09T09:36:05;98846.44;;;22.63;59.17
33286;BME280;19656;50.096;20.014;2022-09-09T09:41:11;98853.27;;;22.62;58.80
33286;BME280;19656;50.096;20.014;2022-09-09T09:46:20;98855.44;;;22.62;58.43
33286;BME280;19656;50.096;20.014;2022-09-09T09:51:29;98846.08;;;22.66;58.27
33286;BME280;19656;50.096;20.014;2022-09-09T09:56:33;98843.96;;;22.76;58.68
33286;BME280;19656;50.096;20.014;2022-09-09T10:07:22;98840.17;;;22.97;57.33
33286;BME280;19656;50.096;20.014;2022-09-09T10:12:57;98842.84;;;23.11;56.92
33286;BME280;19656;50.096;20.014;2022-09-09T10:18:17;98836.94;;;23.30;56.70
33286;BME280;19656;50.096;20.014;2022-09-09T10:39:32;98837.47;;;24.26;55.35
33286;BME280;19656;50.096;20.014;2022-09-09T10:45:02;98831.23;;;24.32;54.86
33286;BME280;19656;50.096;20.014;2022-09-09T10:50:18;98831.89;;;24.36;54.03
33286;BME280;19656;50.096;20.014;2022-09-09T10:55:43;98841.71;;;24.37;53.58
33286;BME280;19656;50.096;20.014;2022-09-09T11:00:53;98838.38;;;24.30;52.69
33286;BME280;19656;50.096;20.014;2022-09-09T11:06:05;98831.76;;;24.25;52.34
33286;BME280;19656;50.096;20.014;2022-09-09T11:11:29;98833.66;;;24.21;51.83
33286;BME280;19656;50.096;20.014;2022-09-09T11:16:46;98840.64;;;24.23;51.77
33286;BME280;19656;50.096;20.014;2022-09-09T11:21:52;98837.43;;;24.30;51.54
33286;BME280;19656;50.096;20.014;2022-09-09T11:27:01;98828.15;;;24.31;51.43
33286;BME280;19656;50.096;20.014;2022-09-09T11:38:00;98825.08;;;24.59;50.89
33286;BME280;19656;50.096;20.014;2022-09-09T11:43:32;98829.50;;;24.74;50.95
33286;BME280;19656;50.096;20.014;2022-09-09T11:53:27;98825.39;;;25.30;49.83
33286;BME280;19656;50.096;20.014;2022-09-09T11:58:37;98814.50;;;25.50;49.46
33286;BME280;19656;50.096;20.014;2022-09-09T12:08:55;98814.64;;;26.24;48.45
33286;BME280;19656;50.096;20.014;2022-09-09T12:14:00;98819.30;;;26.54;47.79
33286;BME280;19656;50.096;20.014;2022-09-09T12:24:13;98816.44;;;26.96;46.58
33286;BME280;19656;50.096;20.014;2022-09-09T12:29:28;98808.14;;;26.92;46.03
33286;BME280;19656;50.096;20.014;2022-09-09T12:34:40;98817.06;;;26.97;46.45
33286;BME280;19656;50.096;20.014;2022-09-09T12:39:49;98812.97;;;26.91;46.25
33286;BME280;19656;50.096;20.014;2022-09-09T12:45:14;98810.63;;;26.65;46.10
33286;BME280;19656;50.096;20.014;2022-09-09T12:50:25;98810.45;;;26.33;45.73
33286;BME280;19656;50.096;20.014;2022-09-09T12:55:31;98813.19;;;26.07;45.95
33286;BME280;19656;50.096;20.014;2022-09-09T13:00:36;98803.89;;;25.85;45.83
33286;BME280;19656;50.096;20.014;2022-09-09T13:05:39;98812.07;;;25.66;45.74
33286;BME280;19656;50.096;20.014;2022-09-09T13:16:06;98802.66;;;25.33;46.28
33286;BME280;19656;50.096;20.014;2022-09-09T13:21:11;98794.07;;;25.34;46.52
33286;BME280;19656;50.096;20.014;2022-09-09T13:26:22;98795.14;;;25.41;46.39
33286;BME280;19656;50.096;20.014;2022-09-09T13:31:30;98794.52;;;25.33;46.24
33286;BME280;19656;50.096;20.014;2022-09-09T13:36:35;98793.36;;;25.34;46.28
33286;BME280;19656;50.096;20.014;2022-09-09T13:41:45;98794.09;;;25.39;46.00
33286;BME280;19656;50.096;20.014;2022-09-09T13:47:06;98789.52;;;25.44;45.98
33286;BME280;19656;50.096;20.014;2022-09-09T13:52:17;98787.30;;;25.40;46.28
33286;BME280;19656;50.096;20.014;2022-09-09T13:57:23;98785.98;;;25.29;46.49
33286;BME280;19656;50.096;20.014;2022-09-09T14:02:27;98777.86;;;25.17;46.23
33286;BME280;19656;50.096;20.014;2022-09-09T14:07:31;98780.79;;;25.05;46.46
33286;BME280;19656;50.096;20.014;2022-09-09T14:12:35;98787.33;;;24.95;46.81
33286;BME280;19656;50.096;20.014;2022-09-09T14:17:38;98780.56;;;24.84;47.02
33286;BME280;19656;50.096;20.014;2022-09-09T14:22:41;98780.30;;;24.76;47.11
33286;BME280;19656;50.096;20.014;2022-09-09T14:27:44;98785.39;;;24.68;47.35
33286;BME280;19656;50.096;20.014;2022-09-09T14:32:48;98783.61;;;24.54;47.30
33286;BME280;19656;50.096;20.014;2022-09-09T14:37:51;98773.89;;;24.43;47.64
33286;BME280;19656;50.096;20.014;2022-09-09T14:42:54;98772.23;;;24.39;47.67
33286;BME280;19656;50.096;20.014;2022-09-09T14:47:58;98762.33;;;24.31;47.93
33286;BME280;19656;50.096;20.014;2022-09-09T14:53:02;98762.00;;;24.27;48.00
33286;BME280;19656;50.096;20.014;2022-09-09T14:58:05;98757.99;;;24.29;48.01
33286;BME280;19656;50.096;20.014;2022-09-09T15:03:09;98756.27;;;24.28;48.12
33286;BME280;19656;50.096;20.014;2022-09-09T15:08:15;98749.33;;;24.29;48.17
33286;BME280;19656;50.096;20.014;2022-09-09T15:13:18;98750.41;;;24.35;48.17
33286;BME280;19656;50.096;20.014;2022-09-09T15:18:21;98756.27;;;24.31;47.93
33286;BME280;19656;50.096;20.014;2022-09-09T15:23:24;98747.19;;;24.28;47.87
33286;BME280;19656;50.096;20.014;2022-09-09T15:28:28;98754.85;;;24.32;47.70
33286;BME280;19656;50.096;20.014;2022-09-09T15:33:31;98743.84;;;24.31;47.61
33286;BME280;19656;50.096;20.014;2022-09-09T15:38:34;98750.88;;;24.28;47.64
33286;BME280;19656;50.096;20.014;2022-09-09T15:43:38;98752.97;;;24.16;47.63
33286;BME280;19656;50.096;20.014;2022-09-09T15:48:41;98755.30;;;24.01;47.78
33286;BME280;19656;50.096;20.014;2022-09-09T15:53:57;98762.86;;;23.89;48.02
33286;BME280;19656;50.096;20.014;2022-09-09T15:59:01;98770.33;;;23.85;48.35
33286;BME280;19656;50.096;20.014;2022-09-09T16:04:06;98767.75;;;23.77;48.61
33286;BME280;19656;50.096;20.014;2022-09-09T16:09:09;98770.89;;;23.74;48.85
33286;BME280;19656;50.096;20.014;2022-09-09T16:14:13;98769.33;;;23.69;48.87
33286;BME280;19656;50.096;20.014;2022-09-09T16:19:18;98772.22;;;23.64;48.99
33286;BME280;19656;50.096;20.014;2022-09-09T16:24:22;98770.75;;;23.60;49.01
33286;BME280;19656;50.096;20.014;2022-09-09T16:29:26;98772.64;;;23.58;49.16
33286;BME280;19656;50.096;20.014;2022-09-09T16:34:30;98771.30;;;23.49;49.26
33286;BME280;19656;50.096;20.014;2022-09-09T16:39:33;98776.25;;;23.46;49.34
33286;BME280;19656;50.096;20.014;2022-09-09T16:44:36;98773.95;;;23.40;49.53
33286;BME280;19656;50.096;20.014;2022-09-09T16:49:39;98776.13;;;23.30;49.64
33286;BME280;19656;50.096;20.014;2022-09-09T16:54:43;98772.65;;;23.25;49.70
33286;BME280;19656;50.096;20.014;2022-09-09T16:59:48;98766.95;;;23.19;49.87
33286;BME280;19656;50.096;20.014;2022-09-09T17:04:52;98762.01;;;23.11;49.90
33286;BME280;19656;50.096;20.014;2022-09-09T17:09:55;98768.41;;;23.04;50.04
33286;BME280;19656;50.096;20.014;2022-09-09T17:14:58;98771.56;;;22.97;50.31
33286;BME280;19656;50.096;20.014;2022-09-09T17:20:03;98768.52;;;22.89;50.34
33286;BME280;19656;50.096;20.014;2022-09-09T17:25:08;98770.16;;;22.81;50.61
33286;BME280;19656;50.096;20.014;2022-09-09T17:30:11;98772.56;;;22.71;50.81
33286;BME280;19656;50.096;20.014;2022-09-09T17:35:15;98774.05;;;22.60;51.05
33286;BME280;19656;50.096;20.014;2022-09-09T17:40:19;98782.23;;;22.54;51.24
33286;BME280;19656;50.096;20.014;2022-09-09T17:45:23;98796.80;;;22.50;51.52
33286;BME280;19656;50.096;20.014;2022-09-09T17:50:25;98801.30;;;22.43;51.66
33286;BME280;19656;50.096;20.014;2022-09-09T17:55:28;98803.69;;;22.34;51.93
33286;BME280;19656;50.096;20.014;2022-09-09T18:00:31;98807.21;;;22.27;52.05
33286;BME280;19656;50.096;20.014;2022-09-09T18:05:34;98810.88;;;22.20;52.38
33286;BME280;19656;50.096;20.014;2022-09-09T18:10:38;98811.88;;;22.12;52.56
33286;BME280;19656;50.096;20.014;2022-09-09T18:15:41;98805.35;;;22.07;52.80
33286;BME280;19656;50.096;20.014;2022-09-09T18:26:09;98813.86;;;21.92;53.31
33286;BME280;19656;50.096;20.014;2022-09-09T18:31:14;98821.26;;;21.85;53.53
33286;BME280;19656;50.096;20.014;2022-09-09T18:36:41;98819.04;;;21.80;53.63
33286;BME280;19656;50.096;20.014;2022-09-09T18:41:48;98837.48;;;21.76;53.82
33286;BME280;19656;50.096;20.014;2022-09-09T18:46:52;98835.13;;;21.71;54.05
33286;BME280;19656;50.096;20.014;2022-09-09T18:51:56;98831.41;;;21.66;54.29
33286;BME280;19656;50.096;20.014;2022-09-09T18:57:00;98826.89;;;21.58;54.45
33286;BME280;19656;50.096;20.014;2022-09-09T19:02:03;98826.91;;;21.56;54.70
33286;BME280;19656;50.096;20.014;2022-09-09T19:07:06;98834.48;;;21.53;54.75
33286;BME280;19656;50.096;20.014;2022-09-09T19:12:09;98833.49;;;21.54;54.91
33286;BME280;19656;50.096;20.014;2022-09-09T19:17:12;98836.95;;;21.53;54.98
33286;BME280;19656;50.096;20.014;2022-09-09T19:22:16;98835.63;;;21.52;55.04
33286;BME280;19656;50.096;20.014;2022-09-09T19:27:19;98836.54;;;21.49;55.10
33286;BME280;19656;50.096;20.014;2022-09-09T19:32:22;98835.19;;;21.46;55.21
33286;BME280;19656;50.096;20.014;2022-09-09T19:37:45;98830.30;;;21.40;55.25
33286;BME280;19656;50.096;20.014;2022-09-09T19:42:49;98834.02;;;21.36;55.32
33286;BME280;19656;50.096;20.014;2022-09-09T19:47:55;98835.42;;;21.31;55.57
33286;BME280;19656;50.096;20.014;2022-09-09T19:52:58;98836.06;;;21.23;55.59
33286;BME280;19656;50.096;20.014;2022-09-09T19:58:01;98835.74;;;21.16;55.65
33286;BME280;19656;50.096;20.014;2022-09-09T20:03:05;98845.09;;;21.12;56.00
33286;BME280;19656;50.096;20.014;2022-09-09T20:08:21;98847.10;;;21.08;56.13
33286;BME280;19656;50.096;20.014;2022-09-09T20:13:24;98851.13;;;21.08;56.22
33286;BME280;19656;50.096;20.014;2022-09-09T20:18:31;98845.86;;;21.12;56.38
33286;BME280;19656;50.096;20.014;2022-09-09T20:23:35;98838.55;;;21.14;56.60
33286;BME280;19656;50.096;20.014;2022-09-09T20:28:40;98844.72;;;21.17;56.70
33286;BME280;19656;50.096;20.014;2022-09-09T20:33:44;98840.49;;;21.19;56.94
33286;BME280;19656;50.096;20.014;2022-09-09T20:38:54;98847.63;;;21.20;56.85
33286;BME280;19656;50.096;20.014;2022-09-09T20:44:05;98852.73;;;21.11;57.02
33286;BME280;19656;50.096;20.014;2022-09-09T20:49:10;98856.34;;;21.05;57.11
33286;BME280;19656;50.096;20.014;2022-09-09T20:54:16;98852.82;;;21.02;57.24
33286;BME280;19656;50.096;20.014;2022-09-09T20:59:22;98845.94;;;20.97;57.51
33286;BME280;19656;50.096;20.014;2022-09-09T21:04:25;98842.91;;;20.97;57.60
33286;BME280;19656;50.096;20.014;2022-09-09T21:09:28;98846.73;;;20.97;57.83
33286;BME280;19656;50.096;20.014;2022-09-09T21:14:31;98849.88;;;20.96;58.02
33286;BME280;19656;50.096;20.014;2022-09-09T21:19:34;98853.44;;;20.96;58.18
33286;BME280;19656;50.096;20.014;2022-09-09T21:24:37;98854.28;;;20.94;58.32
33286;BME280;19656;50.096;20.014;2022-09-09T21:29:40;98857.81;;;20.88;58.41
33286;BME280;19656;50.096;20.014;2022-09-09T21:34:43;98860.88;;;20.83;58.48
33286;BME280;19656;50.096;20.014;2022-09-09T21:39:47;98842.37;;;20.77;58.70
33286;BME280;19656;50.096;20.014;2022-09-09T21:44:50;98833.94;;;20.71;58.98
33286;BME280;19656;50.096;20.014;2022-09-09T21:49:53;98833.94;;;20.72;58.96
33286;BME280;19656;50.096;20.014;2022-09-09T21:54:56;98837.39;;;20.73;59.17
33286;BME280;19656;50.096;20.014;2022-09-09T21:59:59;98847.80;;;20.72;59.29
33286;BME280;19656;50.096;20.014;2022-09-09T22:05:03;98859.29;;;20.67;59.34
33286;BME280;19656;50.096;20.014;2022-09-09T22:10:07;98857.34;;;20.64;59.41
33286;BME280;19656;50.096;20.014;2022-09-09T22:15:11;98836.38;;;20.58;59.52
33286;BME280;19656;50.096;20.014;2022-09-09T22:20:15;98814.25;;;20.57;59.80
33286;BME280;19656;50.096;20.014;2022-09-09T22:25:18;98819.19;;;20.54;59.81
33286;BME280;19656;50.096;20.014;2022-09-09T22:30:21;98829.84;;;20.51;59.88
33286;BME280;19656;50.096;20.014;2022-09-09T22:35:23;98828.30;;;20.52;60.08
33286;BME280;19656;50.096;20.014;2022-09-09T22:40:26;98824.27;;;20.52;60.12
33286;BME280;19656;50.096;20.014;2022-09-09T22:45:30;98816.05;;;20.50;60.34
33286;BME280;19656;50.096;20.014;2022-09-09T22:50:34;98814.30;;;20.46;60.38
33286;BME280;19656;50.096;20.014;2022-09-09T22:55:54;98812.67;;;20.39;60.44
33286;BME280;19656;50.096;20.014;2022-09-09T23:01:11;98808.25;;;20.31;60.52
33286;BME280;19656;50.096;20.014;2022-09-09T23:06:22;98798.73;;;20.28;60.67
33286;BME280;19656;50.096;20.014;2022-09-09T23:11:28;98801.40;;;20.28;60.71
33286;BME280;19656;50.096;20.014;2022-09-09T23:16:43;98794.91;;;20.27;60.86
33286;BME280;19656;50.096;20.014;2022-09-09T23:21:47;98790.35;;;20.24;60.96
33286;BME280;19656;50.096;20.014;2022-09-09T23:26:50;98788.00;;;20.19;61.06
33286;BME280;19656;50.096;20.014;2022-09-09T23:31:54;98777.55;;;20.14;61.15
33286;BME280;19656;50.096;20.014;2022-09-09T23:36:57;98776.41;;;20.07;61.20
33286;BME280;19656;50.096;20.014;2022-09-09T23:42:00;98770.71;;;20.02;61.25
33286;BME280;19656;50.096;20.014;2022-09-09T23:47:08;98768.25;;;20.03;61.44
33286;BME280;19656;50.096;20.014;2022-09-09T23:52:11;98773.15;;;20.04;61.68
33286;BME280;19656;50.096;20.014;2022-09-09T23:57:14;98771.80;;;20.05;61.60
